createdAt,value
2023-05-07T00:00:49.473Z,91.46
2023-05-07T00:01:49.441Z,91.77
2023-05-07T00:02:49.531Z,91.77
2023-05-07T00:03:49.648Z,92.27
2023-05-07T00:04:49.446Z,92.07
2023-05-07T00:05:50.395Z,91.97
2023-05-07T00:06:49.481Z,91.97
2023-05-07T00:07:49.393Z,92.27
2023-05-07T00:08:49.376Z,92.18
2023-05-07T00:09:49.373Z,91.87
2023-05-07T00:10:49.370Z,91.97
2023-05-07T00:11:49.376Z,91.87
2023-05-07T00:12:49.387Z,92.07
2023-05-07T00:13:49.349Z,91.87
2023-05-07T00:14:49.334Z,92.27
2023-05-07T00:15:49.404Z,92.18
2023-05-07T00:16:49.386Z,91.77
2023-05-07T00:17:49.329Z,91.97
2023-05-07T00:18:49.300Z,92.42
2023-05-07T00:19:49.293Z,92.79
2023-05-07T00:20:49.254Z,92.83
2023-05-07T00:21:49.290Z,92.38
2023-05-07T00:22:49.265Z,92.79
2023-05-07T00:23:49.245Z,92.38
2023-05-07T00:24:49.224Z,92.72
2023-05-07T00:25:49.233Z,92.52
2023-05-07T00:26:49.197Z,92.42
2023-05-07T00:27:49.244Z,92.48
2023-05-07T00:28:49.175Z,92.32
2023-05-07T00:29:49.176Z,92.48
2023-05-07T00:30:50.158Z,92.22
2023-05-07T00:31:49.184Z,92.32
2023-05-07T00:32:49.155Z,92.32
2023-05-07T00:33:49.141Z,92.32
2023-05-07T00:34:49.196Z,92.63
2023-05-07T00:35:49.102Z,92.83
2023-05-07T00:36:49.161Z,92.72
2023-05-07T00:37:49.094Z,92.72
2023-05-07T00:38:49.087Z,93.03
2023-05-07T00:39:49.122Z,92.63
2023-05-07T00:40:49.065Z,92.72
2023-05-07T00:41:49.052Z,92.72
2023-05-07T00:42:49.036Z,93.24
2023-05-07T00:43:49.018Z,93.13
2023-05-07T00:44:49.066Z,92.83
2023-05-07T00:45:49.064Z,92.93
2023-05-07T00:46:49.005Z,93.13
2023-05-07T00:47:49.107Z,92.89
2023-05-07T00:48:49.022Z,92.63
2023-05-07T00:49:48.975Z,93.13
2023-05-07T00:50:48.950Z,92.93
2023-05-07T00:51:48.983Z,92.72
2023-05-07T00:52:48.939Z,92.83
2023-05-07T00:53:48.915Z,92.63
2023-05-07T00:54:48.957Z,92.72
2023-05-07T00:55:48.912Z,92.52
2023-05-07T00:56:48.919Z,92.63
2023-05-07T00:57:48.881Z,92.11
2023-05-07T00:58:48.905Z,92.52
2023-05-07T00:59:48.857Z,92.68
2023-05-07T01:00:48.962Z,92.42
2023-05-07T01:01:48.957Z,92.83
2023-05-07T01:02:48.887Z,92.83
2023-05-07T01:03:48.907Z,93.13
2023-05-07T01:04:48.885Z,92.63
2023-05-07T01:05:48.879Z,92.42
2023-05-07T01:06:48.796Z,92.63
2023-05-07T01:07:48.840Z,92.72
2023-05-07T01:08:48.787Z,92.42
2023-05-07T01:09:48.785Z,92.32
2023-05-07T01:10:48.753Z,92.63
2023-05-07T01:11:48.767Z,92.83
2023-05-07T01:12:48.786Z,92.83
2023-05-07T01:13:48.756Z,93.13
2023-05-07T01:14:48.714Z,92.93
2023-05-07T01:15:48.799Z,92.97
2023-05-07T01:16:48.731Z,93.33
2023-05-07T01:17:48.699Z,92.77
2023-05-07T01:18:48.712Z,92.52
2023-05-07T01:19:48.658Z,92.72
2023-05-07T01:20:48.739Z,92.72
2023-05-07T01:21:48.682Z,92.83
2023-05-07T01:22:48.645Z,93.18
2023-05-07T01:23:48.638Z,93.24
2023-05-07T01:24:49.695Z,93.24
2023-05-07T01:25:48.612Z,92.83
2023-05-07T01:26:48.651Z,93.13
2023-05-07T01:27:48.650Z,92.93
2023-05-07T01:28:48.599Z,92.52
2023-05-07T01:29:48.570Z,92.32
2023-05-07T01:30:48.609Z,92.83
2023-05-07T01:31:48.584Z,92.87
2023-05-07T01:32:48.582Z,92.87
2023-05-07T01:33:48.586Z,92.83
2023-05-07T01:34:48.543Z,93.28
2023-05-07T01:35:48.594Z,92.87
2023-05-07T01:36:48.554Z,92.77
2023-05-07T01:37:48.489Z,92.83
2023-05-07T01:38:48.497Z,92.87
2023-05-07T01:39:48.562Z,93.07
2023-05-07T01:40:48.467Z,92.72
2023-05-07T01:41:48.467Z,92.77
2023-05-07T01:42:48.466Z,92.87
2023-05-07T01:43:48.424Z,92.57
2023-05-07T01:44:48.417Z,93.38
2023-05-07T01:45:48.440Z,92.67
2023-05-07T01:46:48.511Z,92.87
2023-05-07T01:47:48.427Z,92.87
2023-05-07T01:48:48.421Z,92.77
2023-05-07T01:49:48.385Z,93.38
2023-05-07T01:50:48.358Z,92.87
2023-05-07T01:51:48.395Z,93.12
2023-05-07T01:52:48.362Z,92.87
2023-05-07T01:53:48.324Z,92.87
2023-05-07T01:54:48.346Z,92.81
2023-05-07T01:55:48.333Z,92.91
2023-05-07T01:56:48.295Z,93.43
2023-05-07T01:57:48.289Z,93.12
2023-05-07T01:58:48.281Z,93.12
2023-05-07T01:59:48.274Z,93.93
2023-05-07T02:00:48.408Z,93.32
2023-05-07T02:01:48.283Z,93.12
2023-05-07T02:02:48.372Z,93.43
2023-05-07T02:03:48.353Z,94.04
2023-05-07T02:04:48.214Z,92.91
2023-05-07T02:05:49.235Z,93.12
2023-05-07T02:06:48.260Z,93.43
2023-05-07T02:07:48.192Z,93.32
2023-05-07T02:08:48.166Z,93.26
2023-05-07T02:09:48.194Z,93.43
2023-05-07T02:10:48.282Z,93.52
2023-05-07T02:11:48.149Z,93.12
2023-05-07T02:12:48.192Z,94.08
2023-05-07T02:13:48.126Z,93.73
2023-05-07T02:14:48.131Z,93.88
2023-05-07T02:15:48.144Z,93.16
2023-05-07T02:16:48.197Z,93.26
2023-05-07T02:17:48.123Z,93.02
2023-05-07T02:18:48.110Z,92.96
2023-05-07T02:19:48.069Z,93.67
2023-05-07T02:20:48.059Z,93.88
2023-05-07T02:21:48.102Z,93.82
2023-05-07T02:22:48.125Z,93.82
2023-05-07T02:23:48.088Z,93.77
2023-05-07T02:24:48.037Z,93.98
2023-05-07T02:25:48.013Z,93.92
2023-05-07T02:26:47.999Z,93.57
2023-05-07T02:27:48.087Z,93.47
2023-05-07T02:28:48.003Z,94.12
2023-05-07T02:29:47.988Z,93.71
2023-05-07T02:30:48.051Z,94.02
2023-05-07T02:31:47.985Z,93.98
2023-05-07T02:32:48.009Z,94.12
2023-05-07T02:33:47.941Z,93.51
2023-05-07T02:34:47.920Z,93.88
2023-05-07T02:35:47.931Z,93.88
2023-05-07T02:36:47.914Z,93.92
2023-05-07T02:37:47.930Z,93.71
2023-05-07T02:38:48.911Z,93.21
2023-05-07T02:39:48.072Z,93.51
2023-05-07T02:40:47.869Z,93.31
2023-05-07T02:41:47.882Z,93.92
2023-05-07T02:42:47.852Z,93.51
2023-05-07T02:43:47.853Z,93.82
2023-05-07T02:44:47.814Z,93.51
2023-05-07T02:45:47.911Z,93.41
2023-05-07T02:46:47.845Z,93.55
2023-05-07T02:47:47.867Z,94.02
2023-05-07T02:48:47.805Z,93.51
2023-05-07T02:49:48.774Z,93.45
2023-05-07T02:50:47.763Z,94.07
2023-05-07T02:51:47.775Z,94.17
2023-05-07T02:52:47.764Z,93.82
2023-05-07T02:53:47.763Z,94.02
2023-05-07T02:54:47.745Z,93.31
2023-05-07T02:55:47.771Z,93.62
2023-05-07T02:56:47.714Z,94.02
2023-05-07T02:57:47.708Z,93.96
2023-05-07T02:58:47.703Z,93.96
2023-05-07T02:59:47.676Z,93.66
2023-05-07T03:00:47.709Z,94.64
2023-05-07T03:01:47.764Z,94.17
2023-05-07T03:02:47.668Z,94.23
2023-05-07T03:03:47.821Z,93.86
2023-05-07T03:04:47.620Z,94.07
2023-05-07T03:05:47.605Z,93.96
2023-05-07T03:06:47.602Z,93.86
2023-05-07T03:07:47.642Z,94.07
2023-05-07T03:08:47.600Z,93.82
2023-05-07T03:09:47.612Z,94.27
2023-05-07T03:10:47.560Z,93.96
2023-05-07T03:11:47.545Z,93.55
2023-05-07T03:12:47.629Z,94.17
2023-05-07T03:13:47.524Z,93.86
2023-05-07T03:14:47.536Z,94.02
2023-05-07T03:15:47.603Z,93.82
2023-05-07T03:16:47.503Z,94.07
2023-05-07T03:17:47.564Z,93.96
2023-05-07T03:18:47.600Z,94.07
2023-05-07T03:19:47.468Z,93.96
2023-05-07T03:20:47.584Z,94.27
2023-05-07T03:21:47.485Z,94.37
2023-05-07T03:22:47.451Z,94.37
2023-05-07T03:23:47.453Z,93.96
2023-05-07T03:24:47.439Z,94.48
2023-05-07T03:25:47.421Z,94.58
2023-05-07T03:26:47.427Z,94.37
2023-05-07T03:27:47.447Z,94.37
2023-05-07T03:29:19.372Z,94.62
2023-05-07T03:29:47.383Z,94.07
2023-05-07T03:30:47.377Z,94.27
2023-05-07T03:31:47.417Z,94.21
2023-05-07T03:32:47.394Z,93.91
2023-05-07T03:33:47.346Z,94.32
2023-05-07T03:34:47.344Z,94.68
2023-05-07T03:35:47.306Z,94.32
2023-05-07T03:36:47.337Z,94.62
2023-05-07T03:37:47.311Z,94.62
2023-05-07T03:38:47.318Z,94.82
2023-05-07T03:39:47.279Z,95.03
2023-05-07T03:40:47.283Z,94.73
2023-05-07T03:41:47.274Z,94.82
2023-05-07T03:42:47.254Z,94.52
2023-05-07T03:43:47.379Z,94.62
2023-05-07T03:44:47.229Z,94.73
2023-05-07T03:45:47.249Z,94.21
2023-05-07T03:46:47.285Z,94.62
2023-05-07T03:47:47.241Z,94.52
2023-05-07T03:48:47.197Z,94.73
2023-05-07T03:49:47.198Z,95.03
2023-05-07T03:50:47.209Z,94.52
2023-05-07T03:51:47.192Z,94.73
2023-05-07T03:52:47.193Z,94.36
2023-05-07T03:53:47.130Z,94.52
2023-05-07T03:54:47.137Z,93.91
2023-05-07T03:55:47.162Z,94.01
2023-05-07T03:56:47.127Z,94.01
2023-05-07T03:57:47.120Z,94.32
2023-05-07T03:58:47.115Z,94.73
2023-05-07T03:59:47.148Z,94.46
2023-05-07T04:00:47.105Z,94.73
2023-05-07T04:01:47.111Z,93.60
2023-05-07T04:02:47.206Z,93.91
2023-05-07T04:03:47.102Z,94.26
2023-05-07T04:04:47.038Z,94.46
2023-05-07T04:05:47.083Z,94.15
2023-05-07T04:06:47.011Z,94.15
2023-05-07T04:07:47.039Z,94.21
2023-05-07T04:08:47.002Z,94.26
2023-05-07T04:09:47.005Z,94.11
2023-05-07T04:10:46.974Z,94.06
2023-05-07T04:11:46.979Z,94.06
2023-05-07T04:12:46.976Z,94.06
2023-05-07T04:13:46.949Z,94.01
2023-05-07T04:14:46.932Z,94.52
2023-05-07T04:15:47.014Z,93.74
2023-05-07T04:16:47.002Z,93.85
2023-05-07T04:17:46.965Z,94.93
2023-05-07T04:18:46.934Z,94.42
2023-05-07T04:19:46.969Z,93.91
2023-05-07T04:20:46.902Z,93.74
2023-05-07T04:21:46.861Z,93.95
2023-05-07T04:22:46.875Z,94.06
2023-05-07T04:23:46.871Z,94.36
2023-05-07T04:24:46.838Z,94.46
2023-05-07T04:25:46.839Z,94.56
2023-05-07T04:26:46.836Z,94.46
2023-05-07T04:27:46.805Z,94.06
2023-05-07T04:28:46.849Z,94.77
2023-05-07T04:29:46.794Z,94.77
2023-05-07T04:30:46.798Z,94.56
2023-05-07T04:31:46.885Z,94.77
2023-05-07T04:32:46.773Z,94.67
2023-05-07T04:33:46.765Z,94.87
2023-05-07T04:34:46.762Z,94.87
2023-05-07T04:35:46.729Z,94.67
2023-05-07T04:36:46.744Z,94.56
2023-05-07T04:37:46.721Z,94.36
2023-05-07T04:38:46.692Z,94.46
2023-05-07T04:39:46.711Z,94.87
2023-05-07T04:40:46.692Z,94.67
2023-05-07T04:41:46.660Z,94.87
2023-05-07T04:42:46.684Z,94.87
2023-05-07T04:43:46.660Z,94.46
2023-05-07T04:44:46.656Z,94.26
2023-05-07T04:45:46.663Z,94.36
2023-05-07T04:46:46.640Z,95.18
2023-05-07T04:47:46.692Z,95.07
2023-05-07T04:48:46.614Z,94.56
2023-05-07T04:49:46.613Z,94.46
2023-05-07T04:50:46.592Z,94.73
2023-05-07T04:51:46.608Z,94.56
2023-05-07T04:52:46.558Z,94.87
2023-05-07T04:53:46.550Z,94.36
2023-05-07T04:54:46.597Z,94.06
2023-05-07T04:55:46.532Z,94.46
2023-05-07T04:56:46.519Z,94.87
2023-05-07T04:57:46.501Z,94.46
2023-05-07T04:58:46.499Z,94.67
2023-05-07T04:59:46.515Z,95.07
2023-05-07T05:00:46.493Z,94.77
2023-05-07T05:01:46.494Z,94.56
2023-05-07T05:02:46.504Z,94.56
2023-05-07T05:03:46.547Z,94.36
2023-05-07T05:04:46.459Z,94.26
2023-05-07T05:05:46.434Z,94.77
2023-05-07T05:06:46.422Z,94.67
2023-05-07T05:07:46.397Z,94.56
2023-05-07T05:08:46.397Z,94.56
2023-05-07T05:09:46.409Z,94.77
2023-05-07T05:10:46.408Z,94.46
2023-05-07T05:11:46.381Z,94.82
2023-05-07T05:12:46.373Z,94.36
2023-05-07T05:13:46.373Z,94.77
2023-05-07T05:14:46.392Z,94.26
2023-05-07T05:15:46.380Z,94.56
2023-05-07T05:16:46.344Z,94.46
2023-05-07T05:17:46.367Z,94.06
2023-05-07T05:18:46.316Z,93.80
2023-05-07T05:19:46.310Z,94.36
2023-05-07T05:20:46.283Z,94.42
2023-05-07T05:21:46.324Z,95.07
2023-05-07T05:22:46.266Z,94.21
2023-05-07T05:23:46.247Z,94.36
2023-05-07T05:24:46.238Z,94.42
2023-05-07T05:25:46.264Z,94.32
2023-05-07T05:26:46.234Z,94.36
2023-05-07T05:27:46.210Z,94.67
2023-05-07T05:28:46.195Z,94.01
2023-05-07T05:29:46.171Z,93.95
2023-05-07T05:30:46.175Z,94.15
2023-05-07T05:31:46.243Z,94.36
2023-05-07T05:32:46.189Z,94.36
2023-05-07T05:33:46.154Z,93.85
2023-05-07T05:34:46.147Z,93.85
2023-05-07T05:35:46.190Z,94.15
2023-05-07T05:36:46.175Z,94.10
2023-05-07T05:37:46.139Z,93.95
2023-05-07T05:38:46.133Z,94.60
2023-05-07T05:39:47.069Z,94.15
2023-05-07T05:40:46.260Z,94.06
2023-05-07T05:41:46.172Z,93.65
2023-05-07T05:42:47.469Z,93.40
2023-05-07T05:43:46.135Z,93.50
2023-05-07T05:44:46.067Z,93.74
2023-05-07T05:45:46.033Z,93.33
2023-05-07T05:46:46.134Z,93.29
2023-05-07T05:47:46.066Z,93.09
2023-05-07T05:48:45.997Z,93.09
2023-05-07T05:49:46.023Z,93.19
2023-05-07T05:50:45.973Z,93.13
2023-05-07T05:51:45.969Z,93.19
2023-05-07T05:52:45.946Z,93.09
2023-05-07T05:53:46.043Z,92.99
2023-05-07T05:54:45.951Z,93.09
2023-05-07T05:55:45.926Z,92.78
2023-05-07T05:56:45.922Z,92.58
2023-05-07T05:57:45.920Z,92.78
2023-05-07T05:58:45.948Z,92.27
2023-05-07T05:59:45.899Z,92.78
2023-05-07T06:00:45.906Z,92.58
2023-05-07T06:01:45.925Z,92.47
2023-05-07T06:02:46.027Z,92.37
2023-05-07T06:03:45.864Z,92.07
2023-05-07T06:04:45.903Z,92.17
2023-05-07T06:05:45.837Z,92.68
2023-05-07T06:06:45.826Z,92.37
2023-05-07T06:07:46.005Z,92.27
2023-05-07T06:08:45.789Z,92.23
2023-05-07T06:09:45.813Z,92.17
2023-05-07T06:10:45.775Z,92.07
2023-05-07T06:11:45.750Z,92.13
2023-05-07T06:12:45.805Z,92.13
2023-05-07T06:13:45.780Z,91.82
2023-05-07T06:14:45.759Z,91.92
2023-05-07T06:15:45.737Z,92.02
2023-05-07T06:16:45.798Z,91.66
2023-05-07T06:17:45.740Z,91.86
2023-05-07T06:18:45.682Z,91.72
2023-05-07T06:19:45.698Z,91.82
2023-05-07T06:20:45.664Z,91.72
2023-05-07T06:21:45.732Z,91.61
2023-05-07T06:22:45.650Z,91.56
2023-05-07T06:23:45.724Z,91.86
2023-05-07T06:24:45.624Z,91.86
2023-05-07T06:25:45.660Z,91.52
2023-05-07T06:26:47.057Z,91.72
2023-05-07T06:27:46.627Z,91.76
2023-05-07T06:28:49.438Z,92.02
2023-05-07T06:29:47.141Z,91.72
2023-05-07T06:30:45.717Z,91.61
2023-05-07T06:31:45.630Z,91.61
2023-05-07T06:32:45.636Z,91.31
2023-05-07T06:33:45.561Z,91.41
2023-05-07T06:34:45.563Z,91.00
2023-05-07T06:35:45.516Z,90.90
2023-05-07T06:36:45.526Z,91.20
2023-05-07T06:37:45.502Z,90.75
2023-05-07T06:38:45.599Z,90.75
2023-05-07T06:39:45.549Z,90.66
2023-05-07T06:40:45.471Z,90.86
2023-05-07T06:41:45.461Z,90.39
2023-05-07T06:42:45.452Z,90.75
2023-05-07T06:43:45.467Z,90.66
2023-05-07T06:44:45.429Z,90.35
2023-05-07T06:45:45.417Z,90.45
2023-05-07T06:46:45.501Z,90.04
2023-05-07T06:47:45.513Z,90.04
2023-05-07T06:48:45.403Z,89.73
2023-05-07T06:49:45.385Z,90.00
2023-05-07T06:50:45.379Z,89.49
2023-05-07T06:51:45.382Z,89.28
2023-05-07T06:52:45.417Z,89.39
2023-05-07T06:53:45.363Z,88.67
2023-05-07T06:54:45.338Z,88.98
2023-05-07T06:55:45.362Z,89.18
2023-05-07T06:56:45.312Z,88.78
2023-05-07T06:57:45.391Z,88.47
2023-05-07T06:58:45.296Z,88.57
2023-05-07T06:59:45.294Z,88.17
2023-05-07T07:00:45.276Z,88.32
2023-05-07T07:01:45.380Z,88.12
2023-05-07T07:02:45.329Z,88.22
2023-05-07T07:03:45.378Z,88.22
2023-05-07T07:04:45.346Z,87.71
2023-05-07T07:05:45.232Z,88.02
2023-05-07T07:06:45.254Z,87.51
2023-05-07T07:07:45.216Z,87.71
2023-05-07T07:08:45.221Z,88.18
2023-05-07T07:09:45.197Z,87.16
2023-05-07T07:10:45.235Z,86.86
2023-05-07T07:11:45.198Z,87.37
2023-05-07T07:12:45.176Z,86.86
2023-05-07T07:13:45.162Z,87.61
2023-05-07T07:14:46.202Z,87.47
2023-05-07T07:15:45.213Z,87.20
2023-05-07T07:16:45.121Z,87.61
2023-05-07T07:17:45.149Z,87.41
2023-05-07T07:18:45.123Z,87.71
2023-05-07T07:19:45.109Z,87.57
2023-05-07T07:20:45.068Z,86.90
2023-05-07T07:21:45.179Z,87.16
2023-05-07T07:22:45.095Z,86.65
2023-05-07T07:23:45.054Z,86.35
2023-05-07T07:24:45.065Z,86.55
2023-05-07T07:25:45.017Z,86.51
2023-05-07T07:26:45.028Z,85.39
2023-05-07T07:27:45.003Z,85.14
2023-05-07T07:28:45.492Z,85.00
2023-05-07T07:29:46.066Z,84.43
2023-05-07T07:30:44.985Z,84.33
2023-05-07T07:31:45.044Z,85.14
2023-05-07T07:32:44.973Z,85.60
2023-05-07T07:33:44.967Z,85.55
2023-05-07T07:34:44.970Z,85.14
2023-05-07T07:35:44.929Z,85.14
2023-05-07T07:36:46.701Z,84.64
2023-05-07T07:37:45.919Z,84.90
2023-05-07T07:38:44.907Z,83.68
2023-05-07T07:39:44.878Z,84.50
2023-05-07T07:40:44.953Z,83.98
2023-05-07T07:41:44.879Z,83.37
2023-05-07T07:42:44.850Z,83.64
2023-05-07T07:43:44.890Z,83.48
2023-05-07T07:44:44.835Z,83.27
2023-05-07T07:45:44.837Z,83.03
2023-05-07T07:46:44.980Z,82.85
2023-05-07T07:47:44.905Z,82.07
2023-05-07T07:48:44.796Z,81.46
2023-05-07T07:49:44.786Z,81.33
2023-05-07T07:50:46.131Z,80.82
2023-05-07T07:51:45.916Z,81.33
2023-05-07T07:52:44.881Z,81.12
2023-05-07T07:53:44.799Z,81.46
2023-05-07T07:54:44.756Z,80.98
2023-05-07T07:55:44.730Z,79.86
2023-05-07T07:56:44.721Z,80.47
2023-05-07T07:57:44.761Z,80.11
2023-05-07T07:58:44.696Z,80.82
2023-05-07T07:59:44.744Z,80.92
2023-05-07T08:00:44.661Z,80.85
2023-05-07T08:01:44.734Z,81.02
2023-05-07T08:02:44.800Z,80.21
2023-05-07T08:03:44.747Z,80.07
2023-05-07T08:04:44.636Z,79.02
2023-05-07T08:05:44.624Z,77.52
2023-05-07T08:06:44.663Z,76.06
2023-05-07T08:07:45.613Z,75.76
2023-05-07T08:08:44.648Z,74.57
2023-05-07T08:09:44.577Z,74.88
2023-05-07T08:10:44.561Z,74.77
2023-05-07T08:11:44.582Z,74.77
2023-05-07T08:12:44.561Z,74.68
2023-05-07T08:13:44.547Z,75.08
2023-05-07T08:14:44.532Z,74.61
2023-05-07T08:15:44.551Z,74.61
2023-05-07T08:16:44.542Z,74.44
2023-05-07T08:17:44.579Z,75.38
2023-05-07T08:18:44.528Z,74.13
2023-05-07T08:19:44.498Z,74.10
2023-05-07T08:20:44.472Z,73.97
2023-05-07T08:21:44.476Z,74.57
2023-05-07T08:22:44.503Z,74.10
2023-05-07T08:23:44.468Z,74.71
2023-05-07T08:24:44.464Z,74.27
2023-05-07T08:25:44.464Z,74.57
2023-05-07T08:26:44.425Z,73.25
2023-05-07T08:27:44.410Z,71.26
2023-05-07T08:28:44.434Z,69.89
2023-05-07T08:29:44.422Z,68.51
2023-05-07T08:30:44.435Z,66.96
2023-05-07T08:31:44.464Z,65.59
2023-05-07T08:32:44.388Z,65.09
2023-05-07T08:33:44.372Z,65.95
2023-05-07T08:34:44.335Z,67.43
2023-05-07T08:35:44.346Z,69.55
2023-05-07T08:36:44.324Z,69.62
2023-05-07T08:37:44.317Z,70.66
2023-05-07T08:38:44.320Z,71.73
2023-05-07T08:39:44.299Z,71.47
2023-05-07T08:40:44.284Z,71.94
2023-05-07T08:41:45.294Z,71.33
2023-05-07T08:42:44.271Z,71.57
2023-05-07T08:43:44.258Z,72.99
2023-05-07T08:44:44.257Z,73.80
2023-05-07T08:45:44.234Z,72.58
2023-05-07T08:46:44.292Z,70.93
2023-05-07T08:47:44.349Z,71.30
2023-05-07T08:48:44.188Z,69.68
2023-05-07T08:49:44.204Z,68.13
2023-05-07T08:50:44.207Z,67.40
2023-05-07T08:51:44.226Z,67.07
2023-05-07T08:52:44.163Z,66.19
2023-05-07T08:53:44.152Z,67.16
2023-05-07T08:54:44.154Z,69.38
2023-05-07T08:55:44.155Z,67.43
2023-05-07T08:56:44.131Z,68.04
2023-05-07T08:57:44.109Z,68.13
2023-05-07T08:58:44.119Z,67.60
2023-05-07T08:59:44.114Z,66.08
2023-05-07T09:00:44.102Z,67.13
2023-05-07T09:01:44.204Z,67.43
2023-05-07T09:02:44.117Z,68.27
2023-05-07T09:03:44.195Z,69.04
2023-05-07T09:04:44.079Z,69.89
2023-05-07T09:05:44.024Z,70.59
2023-05-07T09:06:44.027Z,71.03
2023-05-07T09:07:44.008Z,71.33
2023-05-07T09:08:45.001Z,71.84
2023-05-07T09:09:44.099Z,71.33
2023-05-07T09:10:43.997Z,70.89
2023-05-07T09:11:43.975Z,70.69
2023-05-07T09:12:44.011Z,70.69
2023-05-07T09:13:43.957Z,71.00
2023-05-07T09:14:43.955Z,71.30
2023-05-07T09:15:44.200Z,70.69
2023-05-07T09:16:43.992Z,71.06
2023-05-07T09:17:43.944Z,70.46
2023-05-07T09:18:43.924Z,70.59
2023-05-07T09:19:44.013Z,70.79
2023-05-07T09:20:43.893Z,71.06
2023-05-07T09:21:43.920Z,70.76
2023-05-07T09:22:43.886Z,70.62
2023-05-07T09:23:43.886Z,69.38
2023-05-07T09:24:43.829Z,68.80
2023-05-07T09:25:43.845Z,69.51
2023-05-07T09:26:43.817Z,69.31
2023-05-07T09:27:43.841Z,69.08
2023-05-07T09:28:43.836Z,68.24
2023-05-07T09:30:15.763Z,68.27
2023-05-07T09:30:43.787Z,67.70
2023-05-07T09:31:43.806Z,66.99
2023-05-07T09:32:43.804Z,68.21
2023-05-07T09:33:43.749Z,68.13
2023-05-07T09:34:43.759Z,68.24
2023-05-07T09:35:43.899Z,68.37
2023-05-07T09:36:43.753Z,69.31
2023-05-07T09:37:43.787Z,69.51
2023-05-07T09:38:43.706Z,69.28
2023-05-07T09:39:43.738Z,68.51
2023-05-07T09:40:43.715Z,69.92
2023-05-07T09:41:43.711Z,69.71
2023-05-07T09:42:43.666Z,69.62
2023-05-07T09:43:43.653Z,69.24
2023-05-07T09:44:43.656Z,69.89
2023-05-07T09:45:43.682Z,70.96
2023-05-07T09:46:43.647Z,70.32
2023-05-07T09:47:43.714Z,70.25
2023-05-07T09:48:43.846Z,70.62
2023-05-07T09:49:43.653Z,71.06
2023-05-07T09:50:43.577Z,70.02
2023-05-07T09:51:43.650Z,69.42
2023-05-07T09:52:43.561Z,70.42
2023-05-07T09:53:43.548Z,69.71
2023-05-07T09:54:43.566Z,70.25
2023-05-07T09:55:43.536Z,70.25
2023-05-07T09:56:43.533Z,70.86
2023-05-07T09:57:43.518Z,70.46
2023-05-07T09:58:43.514Z,69.82
2023-05-07T09:59:43.544Z,69.42
2023-05-07T10:00:43.561Z,69.68
2023-05-07T10:01:43.668Z,69.48
2023-05-07T10:02:43.556Z,70.19
2023-05-07T10:03:43.583Z,69.38
2023-05-07T10:04:43.440Z,69.71
2023-05-07T10:05:43.472Z,69.71
2023-05-07T10:06:43.453Z,70.96
2023-05-07T10:07:43.408Z,70.62
2023-05-07T10:08:43.390Z,70.12
2023-05-07T10:09:43.391Z,69.85
2023-05-07T10:10:43.370Z,70.66
2023-05-07T10:11:43.399Z,70.66
2023-05-07T10:12:44.388Z,69.95
2023-05-07T10:13:43.354Z,70.66
2023-05-07T10:14:43.340Z,71.06
2023-05-07T10:15:43.339Z,71.13
2023-05-07T10:16:43.337Z,70.53
2023-05-07T10:17:43.416Z,69.85
2023-05-07T10:18:43.314Z,70.46
2023-05-07T10:19:43.299Z,70.86
2023-05-07T10:20:43.268Z,70.86
2023-05-07T10:21:43.288Z,71.20
2023-05-07T10:22:43.303Z,70.59
2023-05-07T10:23:43.308Z,70.79
2023-05-07T10:24:43.265Z,71.80
2023-05-07T10:25:43.243Z,71.47
2023-05-07T10:26:43.251Z,71.17
2023-05-07T10:27:43.224Z,70.66
2023-05-07T10:28:43.237Z,69.82
2023-05-07T10:29:44.204Z,70.05
2023-05-07T10:30:43.290Z,69.14
2023-05-07T10:31:43.293Z,70.62
2023-05-07T10:32:43.200Z,70.69
2023-05-07T10:33:43.189Z,71.03
2023-05-07T10:34:43.146Z,71.64
2023-05-07T10:35:43.159Z,71.64
2023-05-07T10:36:43.142Z,71.09
2023-05-07T10:37:43.132Z,71.70
2023-05-07T10:38:43.120Z,72.34
2023-05-07T10:39:43.145Z,71.70
2023-05-07T10:40:43.100Z,72.38
2023-05-07T10:41:43.125Z,70.76
2023-05-07T10:42:43.097Z,71.26
2023-05-07T10:43:43.094Z,70.69
2023-05-07T10:44:43.045Z,70.79
2023-05-07T10:45:43.045Z,70.79
2023-05-07T10:46:43.128Z,70.89
2023-05-07T10:47:43.080Z,71.20
2023-05-07T10:48:42.985Z,71.20
2023-05-07T10:49:43.016Z,70.89
2023-05-07T10:50:43.024Z,71.40
2023-05-07T10:51:42.994Z,70.83
2023-05-07T10:52:42.989Z,70.89
2023-05-07T10:53:42.979Z,71.17
2023-05-07T10:54:42.950Z,71.00
2023-05-07T10:55:42.991Z,70.09
2023-05-07T10:56:42.936Z,69.48
2023-05-07T10:57:43.937Z,68.77
2023-05-07T10:58:42.943Z,69.38
2023-05-07T10:59:43.206Z,69.45
2023-05-07T11:00:42.884Z,69.78
2023-05-07T11:01:42.922Z,69.08
2023-05-07T11:02:42.942Z,68.77
2023-05-07T11:03:42.862Z,69.51
2023-05-07T11:04:42.927Z,69.28
2023-05-07T11:05:43.096Z,68.37
2023-05-07T11:06:42.957Z,68.47
2023-05-07T11:07:42.809Z,69.78
2023-05-07T11:08:42.804Z,68.67
2023-05-07T11:09:42.961Z,69.21
2023-05-07T11:10:42.804Z,69.58
2023-05-07T11:11:43.017Z,69.71
2023-05-07T11:12:42.824Z,69.38
2023-05-07T11:13:42.757Z,69.08
2023-05-07T11:14:43.734Z,68.71
2023-05-07T11:15:42.757Z,69.48
2023-05-07T11:16:42.786Z,68.51
2023-05-07T11:17:42.726Z,68.51
2023-05-07T11:18:42.711Z,68.51
2023-05-07T11:19:42.697Z,68.71
2023-05-07T11:20:42.686Z,69.42
2023-05-07T11:21:42.759Z,69.71
2023-05-07T11:22:42.756Z,69.71
2023-05-07T11:23:42.711Z,70.12
2023-05-07T11:24:42.652Z,69.42
2023-05-07T11:25:42.649Z,69.62
2023-05-07T11:26:42.617Z,69.51
2023-05-07T11:27:42.751Z,69.62
2023-05-07T11:28:42.599Z,69.51
2023-05-07T11:29:42.581Z,69.01
2023-05-07T11:30:42.611Z,69.21
2023-05-07T11:31:42.610Z,69.11
2023-05-07T11:32:42.608Z,69.11
2023-05-07T11:33:42.548Z,69.51
2023-05-07T11:34:42.554Z,69.62
2023-05-07T11:35:42.573Z,69.08
2023-05-07T11:36:42.541Z,68.80
2023-05-07T11:37:42.503Z,69.71
2023-05-07T11:38:42.536Z,69.01
2023-05-07T11:39:42.541Z,69.42
2023-05-07T11:40:42.475Z,69.42
2023-05-07T11:41:42.483Z,69.82
2023-05-07T11:42:42.486Z,68.47
2023-05-07T11:43:42.502Z,69.42
2023-05-07T11:44:42.436Z,69.51
2023-05-07T11:45:42.491Z,69.68
2023-05-07T11:46:42.446Z,68.54
2023-05-07T11:47:42.503Z,67.13
2023-05-07T11:48:42.444Z,68.27
2023-05-07T11:49:42.409Z,69.51
2023-05-07T11:50:42.405Z,68.67
2023-05-07T11:51:42.386Z,69.48
2023-05-07T11:52:42.382Z,69.18
2023-05-07T11:53:42.359Z,69.15
2023-05-07T11:54:42.346Z,68.67
2023-05-07T11:55:42.370Z,69.65
2023-05-07T11:56:42.325Z,67.43
2023-05-07T11:57:42.332Z,67.46
2023-05-07T11:58:42.341Z,68.37
2023-05-07T11:59:42.326Z,68.54
2023-05-07T12:00:42.285Z,67.63
2023-05-07T12:01:42.296Z,67.97
2023-05-07T12:02:42.330Z,67.43
2023-05-07T12:03:42.335Z,68.24
2023-05-07T12:04:42.390Z,68.44
2023-05-07T12:05:42.243Z,68.13
2023-05-07T12:06:42.225Z,68.13
2023-05-07T12:07:42.257Z,68.10
2023-05-07T12:08:42.213Z,67.40
2023-05-07T12:09:42.216Z,68.47
2023-05-07T12:10:42.199Z,67.46
2023-05-07T12:11:42.178Z,68.37
2023-05-07T12:12:42.291Z,68.30
2023-05-07T12:13:42.171Z,68.77
2023-05-07T12:14:42.571Z,69.01
2023-05-07T12:15:42.135Z,68.71
2023-05-07T12:16:42.228Z,69.92
2023-05-07T12:17:42.178Z,70.32
2023-05-07T12:18:42.128Z,69.42
2023-05-07T12:19:42.137Z,69.42
2023-05-07T12:20:42.088Z,69.92
2023-05-07T12:21:42.108Z,70.73
2023-05-07T12:22:42.147Z,69.92
2023-05-07T12:23:42.081Z,70.25
2023-05-07T12:24:42.106Z,71.50
2023-05-07T12:25:42.040Z,71.00
2023-05-07T12:26:42.052Z,71.20
2023-05-07T12:27:42.090Z,70.89
2023-05-07T12:28:42.043Z,71.70
2023-05-07T12:29:42.063Z,71.84
2023-05-07T12:30:42.024Z,71.77
2023-05-07T12:31:42.053Z,71.13
2023-05-07T12:32:41.993Z,70.73
2023-05-07T12:33:41.969Z,70.42
2023-05-07T12:34:45.476Z,69.95
2023-05-07T12:35:42.006Z,70.25
2023-05-07T12:36:41.930Z,71.13
2023-05-07T12:37:41.964Z,70.42
2023-05-07T12:38:42.015Z,69.82
2023-05-07T12:39:41.933Z,70.22
2023-05-07T12:40:41.907Z,69.62
2023-05-07T12:41:41.909Z,69.31
2023-05-07T12:42:41.869Z,69.28
2023-05-07T12:43:41.911Z,69.45
2023-05-07T12:44:41.892Z,68.37
2023-05-07T12:45:41.863Z,68.77
2023-05-07T12:46:41.860Z,69.42
2023-05-07T12:47:41.898Z,69.42
2023-05-07T12:48:41.802Z,69.31
2023-05-07T12:49:42.884Z,69.51
2023-05-07T12:50:41.818Z,69.62
2023-05-07T12:51:41.878Z,70.32
2023-05-07T12:52:41.772Z,70.09